Time;durP1;ratioP1;P1;durP2;ratioP2;P2;SDS_P1;SDS_P2;PMS_P1;PMS_P2;Temp;Humidity;BMP_temperature;BMP_pressure;BME280_temperature;BME280_humidity;BME280_pressure;Samples;Min_cycle;Max_cycle;Signal;HPM_P1;HPM_P2
2022/04/06 00:01:15;;;;;;;28.55;12.28;;;;;;;7.78;85.21;97560.30;2278466;77;20983;-60
2022/04/06 00:04:16;;;;;;;30.00;12.30;;;;;;;7.86;84.54;97561.91;2284723;77;21044;-60
2022/04/06 00:07:18;;;;;;;28.27;11.50;;;;;;;7.98;84.34;97558.42;2283518;78;21268;-60
2022/04/06 00:10:19;;;;;;;26.97;11.10;;;;;;;8.05;83.37;97552.78;2271162;78;21075;-60
2022/04/06 00:13:21;;;;;;;28.42;11.43;;;;;;;7.88;83.80;97540.44;2274645;78;20993;-60
2022/04/06 00:16:22;;;;;;;26.27;10.45;;;;;;;7.98;83.24;97540.14;2257535;78;20960;-60
2022/04/06 00:19:24;;;;;;;25.00;10.63;;;;;;;7.95;83.55;97550.81;2277960;77;20981;-60
2022/04/06 00:22:25;;;;;;;26.75;10.80;;;;;;;8.08;83.29;97544.73;2275566;77;21526;-60
2022/04/06 00:25:27;;;;;;;26.33;10.50;;;;;;;7.97;84.87;97545.47;2275739;78;20984;-59
2022/04/06 00:28:29;;;;;;;28.50;10.48;;;;;;;8.05;84.13;97539.73;2249398;78;21522;-61
2022/04/06 00:31:31;;;;;;;27.17;10.30;;;;;;;8.09;83.93;97549.84;2246304;79;21047;-60
2022/04/06 00:37:36;;;;;;;26.42;10.75;;;;;;;8.30;82.67;97548.78;2210931;79;21042;-60
2022/04/06 00:40:38;;;;;;;23.57;9.50;;;;;;;8.25;82.90;97542.22;2243585;79;21084;-60
2022/04/06 00:43:39;;;;;;;22.67;8.75;;;;;;;8.21;83.83;97552.04;2242373;79;21495;-60
2022/04/06 00:46:41;;;;;;;24.80;9.33;;;;;;;8.27;83.82;97550.28;2228443;79;21064;-60
2022/04/06 00:49:42;;;;;;;25.75;9.45;;;;;;;8.27;83.42;97537.22;2235934;79;21583;-60
2022/04/06 00:52:44;;;;;;;28.60;10.82;;;;;;;8.28;83.20;97536.28;2232736;79;21043;-60
2022/04/06 00:55:46;;;;;;;23.92;9.30;;;;;;;8.38;82.97;97531.72;2243494;79;21015;-60
2022/04/06 00:58:49;;;;;;;24.02;9.63;;;;;;;8.39;82.86;97536.83;2239082;79;21095;-60
2022/04/06 01:01:50;;;;;;;22.75;9.10;;;;;;;8.38;82.89;97533.02;2283426;77;21527;-60
2022/04/06 01:04:52;;;;;;;24.60;9.65;;;;;;;8.43;82.65;97529.59;2281211;78;21035;-60
2022/04/06 01:07:54;;;;;;;24.43;9.63;;;;;;;8.41;82.98;97536.72;2235776;79;21063;-61
2022/04/06 01:10:57;;;;;;;23.27;8.90;;;;;;;8.47;82.41;97526.66;2241244;79;21004;-60
2022/04/06 01:13:58;;;;;;;24.40;8.98;;;;;;;8.37;82.92;97520.41;2233613;79;21055;-60
2022/04/06 01:17:00;;;;;;;22.48;9.65;;;;;;;8.49;82.69;97542.23;2243722;79;20985;-60
2022/04/06 01:20:01;;;;;;;23.40;9.33;;;;;;;8.55;81.83;97540.49;2241017;79;21040;-61
2022/04/06 01:23:04;;;;;;;24.30;8.87;;;;;;;8.61;81.81;97547.05;2240325;79;21492;-60
2022/04/06 01:26:05;;;;;;;;;;;;;;;8.51;83.04;97546.06;2242940;79;22175;-60
2022/04/06 01:29:07;;;;;;;23.90;9.55;;;;;;;8.47;82.81;97546.27;2247705;79;20118;-60
2022/04/06 01:32:10;;;;;;;22.42;9.25;;;;;;;8.37;83.77;97541.80;2220083;78;21009;-61
2022/04/06 01:35:12;;;;;;;23.20;9.18;;;;;;;8.29;85.14;97547.11;2241075;79;21008;-60
2022/04/06 01:38:13;;;;;;;22.32;9.43;;;;;;;8.37;84.59;97536.58;2243368;79;21012;-61
2022/04/06 01:41:15;;;;;;;25.70;10.13;;;;;;;8.35;85.14;97539.75;2238293;79;21063;-60
2022/04/06 01:44:16;;;;;;;24.13;9.70;;;;;;;8.37;84.97;97536.09;2245370;79;21597;-60
2022/04/06 01:47:18;;;;;;;23.57;8.68;;;;;;;8.38;85.73;97548.70;2239183;79;21101;-60
2022/04/06 01:53:23;;;;;;;23.25;10.23;;;;;;;8.06;90.12;97557.04;2211165;79;21531;-60
2022/04/06 01:56:24;;;;;;;24.40;9.73;;;;;;;8.06;90.46;97557.89;2234158;79;21020;-61
2022/04/06 01:59:26;;;;;;;23.62;9.80;;;;;;;8.12;90.43;97559.24;2246406;79;21581;-60
2022/04/06 02:02:27;;;;;;;23.52;9.85;;;;;;;8.21;90.94;97565.09;2239696;79;20966;-60
2022/04/06 02:05:29;;;;;;;24.75;10.50;;;;;;;8.01;93.12;97565.20;2223867;79;21017;-61
2022/04/06 02:08:30;;;;;;;23.27;9.90;;;;;;;8.18;92.66;97558.80;2241551;79;21482;-60
2022/04/06 02:11:32;;;;;;;24.60;9.98;;;;;;;8.20;92.70;97573.88;2245582;79;21031;-60
2022/04/06 02:14:33;;;;;;;23.85;9.35;;;;;;;8.06;94.52;97559.20;2234029;79;21550;-60
2022/04/06 02:17:35;;;;;;;24.47;10.30;;;;;;;8.17;92.78;97544.05;2239350;78;21055;-60
2022/04/06 02:20:36;;;;;;;23.70;10.35;;;;;;;8.23;92.71;97542.78;2235792;79;20989;-60
2022/04/06 02:23:38;;;;;;;23.65;9.88;;;;;;;8.42;90.82;97543.59;2228617;79;21004;-60
2022/04/06 02:26:40;;;;;;;22.50;9.40;;;;;;;8.42;90.85;97534.44;2237607;79;21012;-60
2022/04/06 02:29:41;;;;;;;22.60;8.93;;;;;;;8.33;92.35;97542.03;2247426;79;21014;-60
2022/04/06 02:32:42;;;;;;;22.70;9.15;;;;;;;8.37;91.38;97526.13;2243491;78;20993;-60
2022/04/06 02:35:45;;;;;;;23.87;10.18;;;;;;;8.41;92.32;97528.39;2245858;79;21083;-60
2022/04/06 02:38:47;;;;;;;23.15;9.28;;;;;;;8.53;90.76;97538.94;2237172;79;21028;-60
2022/04/06 02:41:48;;;;;;;22.30;9.00;;;;;;;8.55;90.79;97533.96;2241717;79;21028;-60
2022/04/06 02:44:50;;;;;;;24.30;9.73;;;;;;;8.51;90.91;97532.52;2238464;79;20993;-61
2022/04/06 02:47:51;;;;;;;21.25;8.93;;;;;;;8.51;91.77;97545.58;2243746;79;21482;-60
2022/04/06 02:50:53;;;;;;;21.65;9.20;;;;;;;8.53;90.37;97544.98;2236410;79;21531;-61
2022/04/06 02:53:55;;;;;;;21.97;8.08;;;;;;;8.59;91.78;97551.09;2244681;79;21004;-60
2022/04/06 02:56:56;;;;;;;22.93;9.08;;;;;;;8.60;92.58;97547.99;2239195;79;21603;-60
2022/04/06 02:59:58;;;;;;;21.97;8.40;;;;;;;8.59;93.25;97538.02;2242189;79;20963;-61
2022/04/06 03:03:00;;;;;;;20.80;8.30;;;;;;;8.41;95.57;97538.02;2237834;79;21033;-61
2022/04/06 03:06:01;;;;;;;21.77;8.25;;;;;;;8.33;96.98;97538.56;2244817;79;21001;-61
2022/04/06 03:09:03;;;;;;;21.07;8.63;;;;;;;8.35;97.65;97533.22;2239143;79;21047;-60
2022/04/06 03:12:06;;;;;;;20.80;8.08;;;;;;;8.33;98.65;97532.88;2238309;79;21079;-60
2022/04/06 03:15:07;;;;;;;21.27;7.87;;;;;;;8.35;99.93;97544.98;2197198;79;21021;-61
2022/04/06 03:18:09;;;;;;;20.25;7.65;;;;;;;8.39;100.00;97560.34;2238617;78;21004;-61
2022/04/06 03:21:11;;;;;;;19.48;6.97;;;;;;;8.47;100.00;97542.83;2245189;79;21084;-61
2022/04/06 03:24:12;;;;;;;19.37;7.08;;;;;;;8.53;99.62;97531.91;2228286;79;21042;-60
2022/04/06 03:27:14;;;;;;;19.25;7.15;;;;;;;8.57;99.95;97549.53;2244372;79;21533;-60
2022/04/06 03:30:16;;;;;;;24.10;8.10;;;;;;;8.64;98.90;97558.11;2246380;79;20996;-60
2022/04/06 03:33:17;;;;;;;20.17;7.58;;;;;;;8.58;99.43;97565.09;2245678;79;21589;-60
2022/04/06 03:36:19;;;;;;;19.98;7.70;;;;;;;8.65;99.48;97575.47;2232457;78;20969;-60
2022/04/06 03:39:21;;;;;;;21.07;7.93;;;;;;;8.66;99.37;97571.06;2251281;78;21574;-60
2022/04/06 03:42:22;;;;;;;19.62;7.30;;;;;;;8.65;99.31;97578.08;2250168;79;20995;-61
2022/04/06 03:45:24;;;;;;;20.43;7.45;;;;;;;8.82;97.67;97569.45;2224138;79;21114;-61
2022/04/06 03:48:25;;;;;;;20.88;7.83;;;;;;;8.82;97.43;97578.16;2228686;79;21546;-60
2022/04/06 03:51:27;;;;;;;20.02;7.75;;;;;;;8.94;95.99;97584.73;2224630;79;21052;-61
2022/04/06 03:54:28;;;;;;;21.93;7.80;;;;;;;8.90;96.56;97577.58;2233047;79;21042;-61
2022/04/06 03:57:30;;;;;;;20.88;8.50;;;;;;;8.88;96.51;97582.55;2234594;79;21031;-61
2022/04/06 04:00:31;;;;;;;21.60;8.55;;;;;;;8.87;96.47;97564.73;2233668;79;21003;-60
2022/04/06 04:03:33;;;;;;;22.13;8.47;;;;;;;8.88;96.30;97587.78;2232275;79;20989;-60
2022/04/06 04:06:34;;;;;;;21.70;8.20;;;;;;;8.98;95.91;97600.08;2240758;79;21040;-61
2022/04/06 04:09:36;;;;;;;22.27;8.53;;;;;;;9.04;95.04;97603.17;2242893;79;21004;-61
2022/04/06 04:12:38;;;;;;;22.13;8.85;;;;;;;8.93;95.43;97606.59;2242446;78;21024;-60
2022/04/06 04:15:40;;;;;;;21.93;8.38;;;;;;;8.96;95.54;97605.88;2280315;78;21007;-60
2022/04/06 04:18:41;;;;;;;20.80;8.30;;;;;;;9.06;94.67;97611.75;2265300;78;20987;-61
2022/04/06 04:21:43;;;;;;;21.07;8.60;;;;;;;8.99;95.18;97626.60;2264114;78;20968;-61
2022/04/06 04:24:44;;;;;;;22.82;9.55;;;;;;;9.05;94.65;97624.47;2285148;77;21013;-61
2022/04/06 04:27:46;;;;;;;21.10;8.40;;;;;;;9.06;94.35;97614.38;2283344;77;21495;-60
2022/04/06 04:30:47;;;;;;;21.82;8.10;;;;;;;9.17;93.49;97617.03;2244305;78;20984;-61
2022/04/06 04:33:49;;;;;;;20.65;8.33;;;;;;;9.19;92.81;97623.82;2241614;79;20998;-61
2022/04/06 04:36:50;;;;;;;21.55;8.78;;;;;;;9.19;92.66;97619.05;2231357;79;21004;-60
2022/04/06 04:39:52;;;;;;;21.33;8.68;;;;;;;9.24;92.05;97614.31;2240651;78;20977;-61
2022/04/06 04:42:54;;;;;;;22.55;8.65;;;;;;;9.19;92.19;97621.66;2237135;79;21009;-61
2022/04/06 04:45:56;;;;;;;21.50;8.60;;;;;;;9.19;92.23;97619.05;2238046;79;21010;-61
2022/04/06 04:48:58;;;;;;;21.27;8.35;;;;;;;9.19;92.09;97625.58;2244387;79;21021;-60
2022/04/06 04:52:00;;;;;;;22.70;10.00;;;;;;;9.24;91.49;97622.16;2235888;79;21031;-61
2022/04/06 04:55:01;;;;;;;21.07;8.53;;;;;;;9.27;91.09;97624.55;2243596;78;21490;-60
2022/04/06 04:58:03;;;;;;;22.60;8.70;;;;;;;9.26;91.05;97617.64;2238665;79;20973;-61
2022/04/06 05:01:04;;;;;;;20.25;8.60;;;;;;;9.18;91.56;97637.02;2235485;79;21032;-61
2022/04/06 05:04:06;;;;;;;22.90;9.23;;;;;;;9.15;91.62;97643.30;2244947;79;21495;-61
2022/04/06 05:07:07;;;;;;;23.95;9.40;;;;;;;9.38;90.26;97634.22;2224430;79;20949;-60
2022/04/06 05:10:09;;;;;;;21.45;8.80;;;;;;;9.41;90.34;97637.91;2237478;79;21005;-61
2022/04/06 05:13:11;;;;;;;22.67;9.28;;;;;;;9.34;89.92;97648.48;2243182;79;21048;-60
2022/04/06 05:16:12;;;;;;;22.62;9.08;;;;;;;9.46;89.45;97644.10;2244602;79;21016;-59
2022/04/06 05:19:14;;;;;;;20.95;8.90;;;;;;;9.71;87.91;97646.53;2231982;79;21559;-61
2022/04/06 05:22:16;;;;;;;22.52;9.03;;;;;;;9.69;87.10;97660.20;2237774;79;21020;-61
2022/04/06 05:25:17;;;;;;;23.47;9.00;;;;;;;9.71;86.69;97667.48;2244951;79;21523;-60
2022/04/06 05:28:19;;;;;;;20.23;8.53;;;;;;;9.81;86.33;97661.53;2242813;79;21039;-60
2022/04/06 05:31:21;;;;;;;23.22;9.13;;;;;;;9.85;85.93;97666.41;2241788;79;21083;-60
2022/04/06 05:34:23;;;;;;;22.77;9.68;;;;;;;9.85;85.85;97662.97;2236314;79;21044;-61
2022/04/06 05:37:24;;;;;;;21.93;8.90;;;;;;;9.89;86.31;97663.91;2238248;79;21044;-60
2022/04/06 05:40:26;;;;;;;23.18;8.75;;;;;;;9.97;85.90;97665.11;2246917;79;21507;-60
2022/04/06 05:43:27;;;;;;;24.70;9.87;;;;;;;10.02;85.08;97669.05;2239874;79;20996;-60
2022/04/06 05:46:29;;;;;;;22.82;9.05;;;;;;;10.10;84.42;97659.76;2237695;79;21480;-60
2022/04/06 05:49:30;;;;;;;22.17;9.43;;;;;;;10.28;84.27;97676.67;2240867;79;20993;-60
2022/04/06 05:52:32;;;;;;;24.12;9.45;;;;;;;10.23;83.88;97672.28;2241061;79;20988;-61
2022/04/06 05:55:34;;;;;;;24.10;9.10;;;;;;;10.27;82.66;97671.09;2237470;79;21012;-61
2022/04/06 05:58:35;;;;;;;23.67;9.23;;;;;;;10.34;82.61;97689.36;2236581;79;21012;-61
2022/04/06 06:01:37;;;;;;;22.73;9.85;;;;;;;10.40;81.31;97686.24;2241457;78;21029;-61
2022/04/06 06:04:38;;;;;;;20.95;8.75;;;;;;;10.54;81.99;97682.55;2236635;79;20989;-60
2022/04/06 06:07:40;;;;;;;20.62;8.58;;;;;;;10.68;81.33;97674.05;2242401;78;21560;-60
2022/04/06 06:10:41;;;;;;;21.30;8.70;;;;;;;10.63;80.56;97679.67;2238866;79;21077;-61
2022/04/06 06:13:43;;;;;;;22.07;9.00;;;;;;;10.63;80.91;97680.98;2236340;79;21558;-61
2022/04/06 06:16:45;;;;;;;24.32;9.90;;;;;;;10.71;80.34;97682.48;2237776;79;20996;-60
2022/04/06 06:19:46;;;;;;;24.35;9.80;;;;;;;10.77;81.19;97690.35;2239220;79;21598;-61
2022/04/06 06:22:48;;;;;;;22.90;8.60;;;;;;;10.87;80.56;97691.27;2245228;79;21140;-60
2022/04/06 06:25:49;;;;;;;24.92;10.28;;;;;;;10.94;79.83;97687.69;2244065;79;21116;-61
2022/04/06 06:28:51;;;;;;;21.87;9.00;;;;;;;11.13;79.53;97688.83;2243800;79;21086;-61
2022/04/06 06:31:54;;;;;;;20.48;8.15;;;;;;;11.17;78.96;97683.69;2238748;79;21004;-60
2022/04/06 06:34:55;;;;;;;23.35;9.13;;;;;;;11.18;78.42;97694.06;2238414;79;21044;-60
2022/04/06 06:37:57;;;;;;;21.20;7.40;;;;;;;11.21;78.63;97695.11;2242778;79;21522;-61
2022/04/06 06:40:59;;;;;;;21.07;7.47;;;;;;;10.88;79.79;97682.95;2238617;79;21020;-60
2022/04/06 06:44:01;;;;;;;22.20;8.65;;;;;;;11.11;78.18;97686.33;2238342;79;21090;-61
2022/04/06 06:47:03;;;;;;;21.82;8.05;;;;;;;11.32;77.91;97689.00;2237076;79;20961;-61
2022/04/06 06:50:05;;;;;;;20.95;7.30;;;;;;;11.49;79.77;97684.14;2240411;79;21563;-60
2022/04/06 06:53:06;;;;;;;19.48;6.50;;;;;;;11.61;77.47;97706.27;2239400;79;21001;-60
2022/04/06 06:56:08;;;;;;;17.27;6.58;;;;;;;11.57;76.38;97675.15;2233667;79;21511;-61
2022/04/06 06:59:09;;;;;;;19.23;7.17;;;;;;;11.56;75.57;97705.81;2242476;79;21028;-60
2022/04/06 07:02:11;;;;;;;17.10;6.55;;;;;;;11.57;75.31;97686.97;2240190;79;21033;-61
2022/04/06 07:05:12;;;;;;;19.62;7.03;;;;;;;11.55;76.27;97711.19;2241216;79;21059;-60
2022/04/06 07:08:13;;;;;;;21.50;7.80;;;;;;;11.65;76.69;97692.42;2239669;79;21310;-61
2022/04/06 07:11:15;;;;;;;19.40;6.58;;;;;;;11.55;76.56;97699.37;2225360;79;21585;-61
2022/04/06 07:14:16;;;;;;;19.30;6.95;;;;;;;11.44;75.54;97678.78;2242823;79;21048;-61
2022/04/06 07:17:19;;;;;;;20.12;7.58;;;;;;;11.71;75.91;97694.98;2241595;79;21561;-61
2022/04/06 07:20:20;;;;;;;20.23;6.87;;;;;;;11.71;77.00;97691.90;2235905;79;20997;-61
2022/04/06 07:23:22;;;;;;;21.00;7.90;;;;;;;11.88;76.40;97698.83;2231217;79;21470;-61
2022/04/06 07:26:23;;;;;;;18.25;6.72;;;;;;;12.16;76.70;97700.48;2243809;79;21012;-61
2022/04/06 07:29:24;;;;;;;19.00;6.95;;;;;;;12.09;74.04;97721.19;2237459;79;21004;-61
2022/04/06 07:32:28;;;;;;;20.68;7.05;;;;;;;12.22;75.37;97706.52;2234783;79;21000;-61
2022/04/06 07:35:31;;;;;;;19.15;6.87;;;;;;;12.25;74.45;97698.37;2241662;79;21009;-61
2022/04/06 07:38:33;;;;;;;18.90;6.37;;;;;;;12.20;73.08;97709.78;2238646;79;21508;-61
2022/04/06 07:41:34;;;;;;;20.12;6.40;;;;;;;11.93;74.25;97697.52;2244314;78;21009;-60
2022/04/06 07:44:36;;;;;;;18.77;6.10;;;;;;;11.92;74.17;97714.23;2241102;79;21531;-61
2022/04/06 07:47:38;;;;;;;16.55;5.90;;;;;;;11.73;74.50;97717.55;2241282;79;20988;-60
2022/04/06 07:50:40;;;;;;;17.15;5.55;;;;;;;11.81;73.76;97693.28;2237426;79;21567;-61
2022/04/06 07:53:41;;;;;;;17.13;5.50;;;;;;;11.86;72.65;97713.41;2239954;79;21031;-61
2022/04/06 07:56:43;;;;;;;17.15;5.65;;;;;;;11.64;73.43;97726.20;2243809;79;21491;-60
2022/04/06 07:59:44;;;;;;;17.15;5.72;;;;;;;10.78;77.30;97731.86;2240511;79;20989;-61
2022/04/06 08:02:46;;;;;;;19.02;6.12;;;;;;;10.77;79.29;97731.49;2241173;79;20969;-61
2022/04/06 08:05:50;;;;;;;20.00;6.05;;;;;;;10.85;78.90;97737.80;2240294;79;20966;-61
2022/04/06 08:08:53;;;;;;;20.82;6.35;;;;;;;10.71;80.18;97728.88;2216130;79;21008;-61
2022/04/06 08:11:56;;;;;;;17.95;5.87;;;;;;;10.85;81.82;97744.35;2202194;79;21050;-61
2022/04/06 08:14:57;;;;;;;16.77;5.65;;;;;;;10.97;79.34;97743.02;2235561;79;21506;-61
2022/04/06 08:17:59;;;;;;;17.20;5.53;;;;;;;11.21;80.39;97738.91;2239651;79;21031;-60
2022/04/06 08:21:01;;;;;;;19.35;5.90;;;;;;;11.33;78.00;97728.71;2235699;79;21507;-61
2022/04/06 08:24:02;;;;;;;18.10;5.50;;;;;;;10.66;84.96;97740.19;2242855;79;20977;-61
2022/04/06 08:27:03;;;;;;;18.37;6.08;;;;;;;11.03;83.67;97739.90;2240027;79;21019;-61
2022/04/06 08:30:05;;;;;;;19.25;6.17;;;;;;;11.31;84.10;97745.08;2242558;79;21071;-61
2022/04/06 08:33:07;;;;;;;19.77;5.62;;;;;;;11.53;83.62;97745.45;2236439;79;21040;-61
2022/04/06 08:36:09;;;;;;;19.52;6.25;;;;;;;11.61;77.84;97735.16;2230970;79;21081;-62
2022/04/06 08:39:10;;;;;;;21.27;6.13;;;;;;;11.68;80.10;97742.53;2241368;79;21000;-61
2022/04/06 08:42:12;;;;;;;21.57;7.25;;;;;;;11.78;78.34;97744.77;2239941;79;21919;-61
2022/04/06 08:45:13;;;;;;;23.20;8.00;;;;;;;11.71;75.92;97757.57;2240497;79;20992;-61
2022/04/06 08:48:15;;;;;;;;;;;;;;;11.40;79.05;97739.55;2242735;79;21522;-61
2022/04/06 08:51:17;;;;;;;23.77;7.67;;;;;;;11.42;76.88;97759.48;2237658;79;20106;-61
2022/04/06 08:54:19;;;;;;;18.85;6.67;;;;;;;11.25;76.83;97772.66;2243090;79;21049;-61
2022/04/06 08:57:21;;;;;;;20.12;6.00;;;;;;;11.93;73.43;97746.13;2238827;79;21039;-61
2022/04/06 09:00:23;;;;;;;17.93;5.80;;;;;;;12.09;72.79;97761.92;2235709;79;20988;-61
2022/04/06 09:03:24;;;;;;;17.70;5.47;;;;;;;12.20;71.54;97751.34;2240825;79;21017;-61
2022/04/06 09:06:29;;;;;;;15.97;4.10;;;;;;;12.44;72.39;97743.63;2241525;79;21515;-61
2022/04/06 09:09:32;;;;;;;15.80;4.65;;;;;;;12.46;69.45;97760.13;2209138;79;21027;-61
2022/04/06 09:12:32;;;;;;;16.32;4.75;;;;;;;12.51;70.93;97736.05;2213706;79;21075;-61
2022/04/06 09:15:34;;;;;;;17.35;5.30;;;;;;;12.57;71.39;97734.20;2237986;79;21625;-61
2022/04/06 09:18:36;;;;;;;17.85;5.62;;;;;;;12.54;71.72;97741.05;2231543;79;21127;-61
2022/04/06 09:21:37;;;;;;;18.60;6.53;;;;;;;12.51;70.05;97759.72;2238276;79;20984;-61
2022/04/06 09:24:39;;;;;;;18.57;5.78;;;;;;;12.58;71.84;97762.17;2236591;79;21035;-61
2022/04/06 09:27:41;;;;;;;18.67;5.62;;;;;;;12.79;71.76;97750.28;2244901;79;21000;-61
2022/04/06 09:30:42;;;;;;;20.60;7.67;;;;;;;12.94;71.28;97734.94;2242140;79;20989;-61
2022/04/06 09:33:44;;;;;;;19.53;5.97;;;;;;;12.94;70.57;97735.79;2242626;79;21032;-61
2022/04/06 09:36:46;;;;;;;19.30;6.92;;;;;;;12.74;70.04;97754.64;2242276;79;21100;-61
2022/04/06 09:39:47;;;;;;;20.20;6.50;;;;;;;12.55;72.02;97743.54;2233390;79;20970;-61
2022/04/06 09:42:48;;;;;;;22.05;7.72;;;;;;;12.42;71.49;97737.68;2241294;79;21005;-62
2022/04/06 09:48:53;;;;;;;20.82;7.72;;;;;;;12.09;71.58;97731.21;2219208;79;21005;-61
2022/04/06 09:51:56;;;;;;;21.50;7.50;;;;;;;12.05;72.56;97728.52;2240964;79;20999;-61
2022/04/06 09:54:58;;;;;;;21.33;7.47;;;;;;;11.93;72.69;97738.70;2238366;79;21562;-61
2022/04/06 09:57:59;;;;;;;23.00;8.00;;;;;;;11.96;72.50;97737.16;2243090;79;20988;-61
2022/04/06 10:01:01;;;;;;;18.82;6.45;;;;;;;12.02;73.06;97741.89;2232520;79;21526;-61
2022/04/06 10:04:03;;;;;;;19.70;6.60;;;;;;;12.21;73.53;97735.93;2243063;79;21083;-61
2022/04/06 10:07:06;;;;;;;20.62;7.42;;;;;;;12.22;74.46;97745.95;2244510;79;21492;-61
2022/04/06 10:10:08;;;;;;;19.02;5.97;;;;;;;12.09;76.19;97760.13;2238650;79;21043;-61
2022/04/06 10:13:09;;;;;;;25.80;9.43;;;;;;;12.05;75.51;97740.80;2239723;79;20996;-61
2022/04/06 10:16:12;;;;;;;22.55;8.30;;;;;;;12.04;76.52;97747.87;2241347;79;21035;-61
2022/04/06 10:19:13;;;;;;;21.57;7.80;;;;;;;12.16;76.11;97753.88;2238185;79;21004;-61
2022/04/06 10:22:15;;;;;;;23.42;8.08;;;;;;;12.29;74.04;97747.92;2234811;79;21480;-61
2022/04/06 10:25:16;;;;;;;21.30;8.38;;;;;;;12.13;75.02;97745.77;2240143;79;21023;-61
2022/04/06 10:28:18;;;;;;;20.25;7.60;;;;;;;12.21;74.72;97750.39;2242405;79;21120;-61
2022/04/06 10:31:22;;;;;;;23.80;9.55;;;;;;;12.32;73.85;97756.03;2247025;79;21064;-61
2022/04/06 10:34:24;;;;;;;23.52;8.70;;;;;;;12.35;73.28;97754.95;2208591;79;21021;-60
2022/04/06 10:37:25;;;;;;;20.90;7.47;;;;;;;12.37;73.37;97756.48;2237064;79;21482;-61
2022/04/06 10:40:28;;;;;;;27.77;10.75;;;;;;;12.50;72.20;97744.90;2240048;79;21087;-61
2022/04/06 10:43:30;;;;;;;22.55;8.68;;;;;;;12.69;72.90;97747.61;2242074;79;20965;-61
2022/04/06 10:46:33;;;;;;;25.43;9.73;;;;;;;12.97;72.92;97749.14;2245940;79;21034;-61
2022/04/06 10:49:35;;;;;;;21.57;8.25;;;;;;;13.48;71.67;97732.83;2239833;79;21016;-60
2022/04/06 10:52:36;;;;;;;22.40;8.60;;;;;;;13.88;69.28;97728.34;2240640;79;21053;-61
2022/04/06 10:55:38;;;;;;;21.02;7.90;;;;;;;13.86;67.71;97741.66;2239100;79;20953;-61
2022/04/06 10:58:39;;;;;;;23.17;7.23;;;;;;;13.82;67.76;97728.42;2241598;78;21561;-61
2022/04/06 11:01:45;;;;;;;21.47;8.20;;;;;;;13.56;67.34;97712.36;2286730;77;20985;-61
2022/04/06 11:04:44;;;;;;;20.43;7.80;;;;;;;13.39;67.33;97739.76;2262636;77;20993;-61
2022/04/06 11:10:49;;;;;;;21.23;7.33;;;;;;;12.29;71.25;97733.95;2255883;77;20953;-62
2022/04/06 11:13:50;;;;;;;22.90;7.47;;;;;;;12.18;71.71;97724.83;2285504;77;20993;-61
2022/04/06 11:16:52;;;;;;;24.05;9.13;;;;;;;12.18;72.10;97716.94;2285407;77;21752;-61
2022/04/06 11:19:54;;;;;;;23.20;8.58;;;;;;;12.56;72.08;97725.98;2282482;77;21079;-61
2022/04/06 11:22:56;;;;;;;22.97;8.63;;;;;;;13.05;69.74;97728.24;2283536;77;20984;-61
2022/04/06 11:25:58;;;;;;;19.55;7.28;;;;;;;13.36;71.06;97721.60;2285475;77;21091;-61
2022/04/06 11:28:59;;;;;;;27.05;8.78;;;;;;;13.88;69.44;97713.38;2275342;77;20994;-61
2022/04/06 11:32:02;;;;;;;21.77;8.53;;;;;;;14.52;67.85;97709.16;2284790;77;21032;-61
2022/04/06 11:35:04;;;;;;;22.32;8.60;;;;;;;14.59;66.27;97709.88;2281432;77;21001;-61
2022/04/06 11:38:05;;;;;;;23.47;8.58;;;;;;;14.61;65.62;97694.72;2284336;77;21001;-61
2022/04/06 11:41:07;;;;;;;22.13;8.67;;;;;;;14.62;63.63;97706.48;2284275;77;20996;-61
2022/04/06 11:44:09;;;;;;;;;;;;;;;14.48;63.61;97701.66;2287300;77;21456;-61
2022/04/06 11:47:11;;;;;;;27.62;10.85;;;;;;;14.35;63.98;97703.30;2282416;77;20383;-61
2022/04/06 11:50:14;;;;;;;22.03;9.00;;;;;;;14.14;65.53;97709.63;2284562;77;21028;-62
2022/04/06 11:53:17;;;;;;;21.70;9.20;;;;;;;13.88;64.26;97692.29;2283643;77;21598;-61
2022/04/06 11:56:18;;;;;;;22.55;9.05;;;;;;;13.70;66.26;97705.34;2284432;77;21012;-62
2022/04/06 11:59:22;;;;;;;21.70;8.63;;;;;;;13.58;65.67;97706.48;2284033;77;21036;-61
2022/04/06 12:02:23;;;;;;;21.52;8.85;;;;;;;13.38;66.21;97713.56;2284067;77;21056;-61
2022/04/06 12:05:25;;;;;;;22.82;9.20;;;;;;;13.28;66.22;97703.81;2279464;77;21543;-61
2022/04/06 12:08:27;;;;;;;;;;;;;;;13.08;66.68;97707.41;2281744;77;20993;-61
2022/04/06 12:11:29;;;;;;;23.02;9.25;;;;;;;12.91;67.32;97714.16;2286042;77;20387;-61
2022/04/06 12:14:30;;;;;;;23.80;8.90;;;;;;;12.85;67.63;97716.02;2284801;77;21018;-61
2022/04/06 12:17:32;;;;;;;36.53;17.27;;;;;;;12.71;67.85;97715.41;2281158;77;20961;-61
2022/04/06 12:20:33;;;;;;;28.03;14.13;;;;;;;12.65;68.39;97713.33;2281227;77;21507;-61
2022/04/06 12:23:36;;;;;;;28.67;14.85;;;;;;;12.63;68.03;97720.04;2258853;77;20993;-61
2022/04/06 12:26:38;;;;;;;25.92;11.53;;;;;;;12.62;68.07;97721.48;2286315;77;20997;-61
2022/04/06 12:29:39;;;;;;;20.68;8.08;;;;;;;12.60;68.27;97724.26;2287842;77;21529;-60
2022/04/06 12:32:41;;;;;;;22.77;8.55;;;;;;;12.38;69.12;97716.55;2287783;77;20988;-61
2022/04/06 12:35:43;;;;;;;25.15;9.68;;;;;;;12.26;69.93;97720.58;2282823;77;21032;-61
2022/04/06 12:38:44;;;;;;;27.53;11.33;;;;;;;12.24;70.12;97717.72;2283612;77;21016;-61
2022/04/06 12:41:46;;;;;;;23.50;8.10;;;;;;;12.26;70.67;97715.81;2286549;77;21012;-61
2022/04/06 12:44:47;;;;;;;21.60;8.47;;;;;;;12.29;70.05;97716.86;2281617;77;21031;-61
2022/04/06 12:50:52;;;;;;;26.57;11.45;;;;;;;12.59;69.58;97696.77;2212902;79;21028;-61
2022/04/06 12:53:53;;;;;;;25.88;10.82;;;;;;;12.88;68.94;97692.89;2253018;78;21617;-61
2022/04/06 12:56:55;;;;;;;22.77;8.45;;;;;;;13.21;68.18;97689.53;2243131;79;21067;-61
2022/04/06 12:59:56;;;;;;;25.90;10.65;;;;;;;13.33;67.12;97687.12;2247508;79;21063;-61
2022/04/06 13:02:58;;;;;;;23.47;9.08;;;;;;;13.40;66.66;97686.09;2280808;77;20981;-61
2022/04/06 13:05:59;;;;;;;24.05;8.78;;;;;;;13.36;66.48;97678.15;2280677;77;21055;-61
2022/04/06 13:09:01;;;;;;;25.80;9.98;;;;;;;13.03;67.11;97681.50;2281324;77;20980;-62
2022/04/06 13:12:02;;;;;;;22.30;8.90;;;;;;;12.95;66.73;97680.02;2278115;77;20977;-61
2022/04/06 13:15:04;;;;;;;21.70;7.55;;;;;;;12.87;66.42;97666.70;2280176;77;21099;-61
2022/04/06 13:18:07;;;;;;;22.07;7.80;;;;;;;12.80;66.84;97672.52;2281861;77;21142;-61
2022/04/06 13:21:11;;;;;;;20.90;6.97;;;;;;;12.79;65.85;97664.77;2283368;77;21051;-61
2022/04/06 13:24:12;;;;;;;21.50;6.65;;;;;;;12.79;66.13;97659.51;2255357;77;20949;-62
2022/04/06 13:27:13;;;;;;;22.50;7.70;;;;;;;12.79;65.57;97666.08;2280684;77;21510;-61
2022/04/06 13:30:15;;;;;;;20.43;6.40;;;;;;;12.82;66.08;97657.42;2279715;78;20994;-61
2022/04/06 13:33:17;;;;;;;22.62;8.85;;;;;;;12.98;65.17;97665.27;2285605;77;21597;-61
2022/04/06 13:36:18;;;;;;;24.18;9.23;;;;;;;13.10;66.36;97652.80;2282314;77;21040;-61
2022/04/06 13:39:20;;;;;;;25.03;8.60;;;;;;;13.22;66.10;97670.14;2293131;78;21012;-62
2022/04/06 13:42:21;;;;;;;23.53;8.47;;;;;;;13.36;64.67;97650.50;2286291;77;21001;-61
2022/04/06 13:45:23;;;;;;;22.20;7.80;;;;;;;13.45;63.73;97651.45;2278854;77;21663;-62
2022/04/06 13:48:24;;;;;;;34.23;13.55;;;;;;;13.46;64.29;97655.27;2281194;77;21690;-62
2022/04/06 13:51:26;;;;;;;20.57;6.20;;;;;;;13.50;63.02;97669.82;2281878;77;21037;-62
2022/04/06 13:54:28;;;;;;;;;;;;;;;13.44;62.91;97654.55;2284203;77;21028;-61
2022/04/06 13:57:29;;;;;;;26.15;8.80;;;;;;;13.27;63.84;97645.52;2281224;77;20093;-61
2022/04/06 14:00:32;;;;;;;22.67;7.90;;;;;;;13.39;63.78;97643.63;2236324;79;21054;-61
2022/04/06 14:03:34;;;;;;;22.35;6.28;;;;;;;13.60;62.76;97639.48;2282144;77;20993;-61
2022/04/06 14:06:35;;;;;;;21.82;6.60;;;;;;;13.76;61.92;97639.39;2278515;77;20958;-62
2022/04/06 14:09:38;;;;;;;20.10;6.50;;;;;;;13.96;61.38;97637.03;2280550;77;21012;-61
2022/04/06 14:12:40;;;;;;;20.80;6.83;;;;;;;13.98;60.65;97627.69;2285661;77;21047;-61
2022/04/06 14:15:42;;;;;;;20.70;7.00;;;;;;;14.02;60.31;97612.75;2281588;77;20985;-61
2022/04/06 14:18:44;;;;;;;22.97;6.97;;;;;;;13.86;61.67;97622.59;2281705;77;21004;-61
2022/04/06 14:21:45;;;;;;;21.07;6.62;;;;;;;13.66;61.88;97617.02;2280828;77;21004;-61
2022/04/06 14:27:50;;;;;;;23.92;7.40;;;;;;;14.07;61.36;97607.03;2235199;77;21512;-61